sensor_id;sensor_type;location;lat;lon;timestamp;P1;durP1;ratioP1;P2;durP2;ratioP2
55756;SDS011;41676;44.610;44.078;2023-06-26T00:02:49;15.65;;;5.60;;
55756;SDS011;41676;44.610;44.078;2023-06-26T00:07:50;17.02;;;5.70;;
55756;SDS011;41676;44.610;44.078;2023-06-26T00:12:50;21.20;;;5.50;;
55756;SDS011;41676;44.610;44.078;2023-06-26T00:17:51;18.70;;;5.30;;
55756;SDS011;41676;44.610;44.078;2023-06-26T00:22:52;12.88;;;5.63;;
55756;SDS011;41676;44.610;44.078;2023-06-26T00:27:53;14.60;;;5.93;;
55756;SDS011;41676;44.610;44.078;2023-06-26T00:32:54;13.10;;;5.50;;
55756;SDS011;41676;44.610;44.078;2023-06-26T00:37:55;24.75;;;5.45;;
55756;SDS011;41676;44.610;44.078;2023-06-26T00:42:56;13.02;;;5.18;;
55756;SDS011;41676;44.610;44.078;2023-06-26T00:47:57;25.83;;;6.32;;
55756;SDS011;41676;44.610;44.078;2023-06-26T00:52:57;15.65;;;5.90;;
55756;SDS011;41676;44.610;44.078;2023-06-26T00:58:00;51.65;;;8.05;;
55756;SDS011;41676;44.610;44.078;2023-06-26T01:03:01;43.78;;;7.82;;
55756;SDS011;41676;44.610;44.078;2023-06-26T01:08:02;110.88;;;11.10;;
55756;SDS011;41676;44.610;44.078;2023-06-26T01:13:03;37.88;;;7.57;;
55756;SDS011;41676;44.610;44.078;2023-06-26T01:18:05;21.83;;;6.40;;
55756;SDS011;41676;44.610;44.078;2023-06-26T01:28:44;109.88;;;11.65;;
55756;SDS011;41676;44.610;44.078;2023-06-26T01:33:46;44.97;;;6.40;;
55756;SDS011;41676;44.610;44.078;2023-06-26T01:38:47;22.77;;;6.28;;
55756;SDS011;41676;44.610;44.078;2023-06-26T01:54:17;47.00;;;7.32;;
55756;SDS011;41676;44.610;44.078;2023-06-26T01:59:19;80.05;;;8.90;;
55756;SDS011;41676;44.610;44.078;2023-06-26T02:04:22;32.83;;;7.63;;
55756;SDS011;41676;44.610;44.078;2023-06-26T02:09:23;49.33;;;8.88;;
55756;SDS011;41676;44.610;44.078;2023-06-26T02:14:23;47.65;;;8.98;;
55756;SDS011;41676;44.610;44.078;2023-06-26T02:19:24;49.03;;;8.30;;
55756;SDS011;41676;44.610;44.078;2023-06-26T02:24:25;14.45;;;5.53;;
55756;SDS011;41676;44.610;44.078;2023-06-26T02:29:30;17.15;;;5.63;;
55756;SDS011;41676;44.610;44.078;2023-06-26T02:34:30;17.20;;;5.40;;
55756;SDS011;41676;44.610;44.078;2023-06-26T02:39:31;10.13;;;5.38;;
55756;SDS011;41676;44.610;44.078;2023-06-26T02:44:32;15.60;;;5.38;;
55756;SDS011;41676;44.610;44.078;2023-06-26T02:49:33;10.88;;;4.75;;
55756;SDS011;41676;44.610;44.078;2023-06-26T02:54:34;17.10;;;5.55;;
55756;SDS011;41676;44.610;44.078;2023-06-26T02:59:34;15.40;;;5.53;;
55756;SDS011;41676;44.610;44.078;2023-06-26T03:04:35;14.68;;;4.95;;
55756;SDS011;41676;44.610;44.078;2023-06-26T03:09:36;15.45;;;5.30;;
55756;SDS011;41676;44.610;44.078;2023-06-26T03:14:37;17.20;;;5.20;;
55756;SDS011;41676;44.610;44.078;2023-06-26T03:19:38;13.35;;;4.45;;
55756;SDS011;41676;44.610;44.078;2023-06-26T03:24:38;18.95;;;5.60;;
55756;SDS011;41676;44.610;44.078;2023-06-26T03:29:39;11.82;;;4.70;;
55756;SDS011;41676;44.610;44.078;2023-06-26T03:34:40;12.93;;;5.18;;
55756;SDS011;41676;44.610;44.078;2023-06-26T03:39:41;13.10;;;4.68;;
55756;SDS011;41676;44.610;44.078;2023-06-26T03:44:42;24.13;;;5.50;;
55756;SDS011;41676;44.610;44.078;2023-06-26T03:49:42;24.90;;;6.05;;
55756;SDS011;41676;44.610;44.078;2023-06-26T03:54:43;19.00;;;5.90;;
55756;SDS011;41676;44.610;44.078;2023-06-26T03:59:44;13.93;;;4.97;;
55756;SDS011;41676;44.610;44.078;2023-06-26T04:04:45;20.90;;;6.25;;
55756;SDS011;41676;44.610;44.078;2023-06-26T04:09:46;17.83;;;6.35;;
55756;SDS011;41676;44.610;44.078;2023-06-26T04:14:46;15.85;;;5.57;;
55756;SDS011;41676;44.610;44.078;2023-06-26T04:19:47;14.98;;;5.82;;
55756;SDS011;41676;44.610;44.078;2023-06-26T04:24:48;14.95;;;5.63;;
55756;SDS011;41676;44.610;44.078;2023-06-26T04:29:49;12.13;;;5.80;;
55756;SDS011;41676;44.610;44.078;2023-06-26T04:34:50;20.08;;;6.82;;
55756;SDS011;41676;44.610;44.078;2023-06-26T04:39:51;13.45;;;5.40;;
55756;SDS011;41676;44.610;44.078;2023-06-26T04:44:51;11.95;;;5.15;;
55756;SDS011;41676;44.610;44.078;2023-06-26T04:49:52;12.65;;;5.20;;
55756;SDS011;41676;44.610;44.078;2023-06-26T04:54:53;15.63;;;5.50;;
55756;SDS011;41676;44.610;44.078;2023-06-26T04:59:54;12.75;;;5.65;;
55756;SDS011;41676;44.610;44.078;2023-06-26T05:04:54;12.15;;;5.65;;
55756;SDS011;41676;44.610;44.078;2023-06-26T05:09:55;12.45;;;5.60;;
55756;SDS011;41676;44.610;44.078;2023-06-26T05:14:56;12.38;;;5.40;;
55756;SDS011;41676;44.610;44.078;2023-06-26T05:19:57;13.98;;;5.53;;
55756;SDS011;41676;44.610;44.078;2023-06-26T05:24:58;11.35;;;5.15;;
55756;SDS011;41676;44.610;44.078;2023-06-26T05:30:01;47.78;;;6.60;;
55756;SDS011;41676;44.610;44.078;2023-06-26T05:35:02;15.20;;;5.63;;
55756;SDS011;41676;44.610;44.078;2023-06-26T05:40:07;17.02;;;5.32;;
55756;SDS011;41676;44.610;44.078;2023-06-26T05:45:09;15.88;;;5.50;;
55756;SDS011;41676;44.610;44.078;2023-06-26T05:50:11;13.23;;;5.90;;
55756;SDS011;41676;44.610;44.078;2023-06-26T05:55:12;9.93;;;6.65;;
55756;SDS011;41676;44.610;44.078;2023-06-26T06:00:13;13.45;;;5.40;;
55756;SDS011;41676;44.610;44.078;2023-06-26T06:05:14;15.48;;;5.55;;
55756;SDS011;41676;44.610;44.078;2023-06-26T06:10:15;16.75;;;5.68;;
55756;SDS011;41676;44.610;44.078;2023-06-26T06:15:16;11.30;;;5.65;;
55756;SDS011;41676;44.610;44.078;2023-06-26T06:20:17;16.65;;;5.72;;
55756;SDS011;41676;44.610;44.078;2023-06-26T06:25:21;15.18;;;5.40;;
55756;SDS011;41676;44.610;44.078;2023-06-26T06:30:22;7.10;;;4.80;;
55756;SDS011;41676;44.610;44.078;2023-06-26T06:35:22;11.25;;;5.38;;
55756;SDS011;41676;44.610;44.078;2023-06-26T06:40:23;13.48;;;5.28;;
55756;SDS011;41676;44.610;44.078;2023-06-26T06:45:26;9.43;;;5.05;;
55756;SDS011;41676;44.610;44.078;2023-06-26T06:50:26;20.30;;;5.50;;
55756;SDS011;41676;44.610;44.078;2023-06-26T06:55:27;8.15;;;5.25;;
55756;SDS011;41676;44.610;44.078;2023-06-26T07:00:28;24.20;;;5.88;;
55756;SDS011;41676;44.610;44.078;2023-06-26T07:05:29;18.73;;;6.10;;
55756;SDS011;41676;44.610;44.078;2023-06-26T07:10:30;9.43;;;5.47;;
55756;SDS011;41676;44.610;44.078;2023-06-26T07:15:31;21.07;;;5.47;;
55756;SDS011;41676;44.610;44.078;2023-06-26T07:20:32;14.13;;;5.45;;
55756;SDS011;41676;44.610;44.078;2023-06-26T07:25:33;8.18;;;4.50;;
55756;SDS011;41676;44.610;44.078;2023-06-26T07:30:33;13.07;;;5.50;;
55756;SDS011;41676;44.610;44.078;2023-06-26T07:35:34;7.85;;;5.10;;
55756;SDS011;41676;44.610;44.078;2023-06-26T07:40:35;9.68;;;4.93;;
55756;SDS011;41676;44.610;44.078;2023-06-26T07:45:35;7.78;;;4.55;;
55756;SDS011;41676;44.610;44.078;2023-06-26T07:50:36;28.70;;;5.40;;
55756;SDS011;41676;44.610;44.078;2023-06-26T07:55:37;10.05;;;5.15;;
55756;SDS011;41676;44.610;44.078;2023-06-26T08:00:38;43.72;;;6.20;;
55756;SDS011;41676;44.610;44.078;2023-06-26T08:05:39;7.15;;;4.45;;
55756;SDS011;41676;44.610;44.078;2023-06-26T08:10:40;9.48;;;4.30;;
55756;SDS011;41676;44.610;44.078;2023-06-26T08:15:40;18.48;;;5.47;;
55756;SDS011;41676;44.610;44.078;2023-06-26T08:20:41;31.40;;;6.68;;
55756;SDS011;41676;44.610;44.078;2023-06-26T08:25:42;10.48;;;4.68;;
55756;SDS011;41676;44.610;44.078;2023-06-26T08:30:43;15.70;;;4.93;;
55756;SDS011;41676;44.610;44.078;2023-06-26T08:35:44;14.13;;;4.90;;
55756;SDS011;41676;44.610;44.078;2023-06-26T08:40:45;14.90;;;4.95;;
55756;SDS011;41676;44.610;44.078;2023-06-26T08:45:45;30.30;;;5.72;;
55756;SDS011;41676;44.610;44.078;2023-06-26T08:50:48;10.52;;;4.90;;
55756;SDS011;41676;44.610;44.078;2023-06-26T08:55:52;12.85;;;5.35;;
55756;SDS011;41676;44.610;44.078;2023-06-26T09:00:53;12.27;;;4.68;;
55756;SDS011;41676;44.610;44.078;2023-06-26T09:05:56;10.52;;;4.30;;
55756;SDS011;41676;44.610;44.078;2023-06-26T09:10:57;23.65;;;5.80;;
55756;SDS011;41676;44.610;44.078;2023-06-26T09:15:57;7.82;;;4.70;;
55756;SDS011;41676;44.610;44.078;2023-06-26T09:20:58;14.18;;;5.38;;
55756;SDS011;41676;44.610;44.078;2023-06-26T09:26:01;13.93;;;4.85;;
55756;SDS011;41676;44.610;44.078;2023-06-26T09:31:03;11.93;;;5.13;;
55756;SDS011;41676;44.610;44.078;2023-06-26T09:36:09;9.77;;;4.65;;
55756;SDS011;41676;44.610;44.078;2023-06-26T09:41:19;17.83;;;4.70;;
55756;SDS011;41676;44.610;44.078;2023-06-26T09:46:24;10.47;;;4.43;;
55756;SDS011;41676;44.610;44.078;2023-06-26T09:51:26;11.25;;;4.57;;
55756;SDS011;41676;44.610;44.078;2023-06-26T09:56:30;19.02;;;5.00;;
55756;SDS011;41676;44.610;44.078;2023-06-26T10:01:33;9.55;;;4.30;;
55756;SDS011;41676;44.610;44.078;2023-06-26T10:06:46;16.05;;;4.57;;
55756;SDS011;41676;44.610;44.078;2023-06-26T10:12:00;12.13;;;4.65;;
55756;SDS011;41676;44.610;44.078;2023-06-26T10:17:07;12.13;;;4.90;;
55756;SDS011;41676;44.610;44.078;2023-06-26T10:22:15;18.25;;;5.38;;
55756;SDS011;41676;44.610;44.078;2023-06-26T10:27:20;15.85;;;4.72;;
55756;SDS011;41676;44.610;44.078;2023-06-26T10:32:22;13.48;;;5.00;;
55756;SDS011;41676;44.610;44.078;2023-06-26T10:42:46;15.15;;;6.10;;
55756;SDS011;41676;44.610;44.078;2023-06-26T10:47:47;11.68;;;4.97;;
55756;SDS011;41676;44.610;44.078;2023-06-26T10:53:08;19.27;;;5.60;;
55756;SDS011;41676;44.610;44.078;2023-06-26T11:03:30;19.77;;;8.45;;
55756;SDS011;41676;44.610;44.078;2023-06-26T11:08:47;13.13;;;5.50;;
55756;SDS011;41676;44.610;44.078;2023-06-26T11:13:55;15.68;;;6.45;;
55756;SDS011;41676;44.610;44.078;2023-06-26T11:18:57;13.20;;;6.22;;
55756;SDS011;41676;44.610;44.078;2023-06-26T11:23:58;13.73;;;5.10;;
55756;SDS011;41676;44.610;44.078;2023-06-26T11:29:02;14.43;;;5.63;;
55756;SDS011;41676;44.610;44.078;2023-06-26T11:34:03;11.10;;;4.45;;
55756;SDS011;41676;44.610;44.078;2023-06-26T11:39:07;13.18;;;5.32;;
55756;SDS011;41676;44.610;44.078;2023-06-26T11:44:09;13.60;;;4.57;;
55756;SDS011;41676;44.610;44.078;2023-06-26T11:49:10;9.70;;;4.78;;
55756;SDS011;41676;44.610;44.078;2023-06-26T11:54:11;12.57;;;4.80;;
55756;SDS011;41676;44.610;44.078;2023-06-26T11:59:14;10.13;;;4.55;;
55756;SDS011;41676;44.610;44.078;2023-06-26T12:04:16;9.68;;;4.75;;
55756;SDS011;41676;44.610;44.078;2023-06-26T12:09:19;20.20;;;5.35;;
55756;SDS011;41676;44.610;44.078;2023-06-26T12:14:22;9.70;;;4.90;;
55756;SDS011;41676;44.610;44.078;2023-06-26T12:19:25;12.50;;;4.95;;
55756;SDS011;41676;44.610;44.078;2023-06-26T12:24:27;10.15;;;4.63;;
55756;SDS011;41676;44.610;44.078;2023-06-26T12:29:34;12.32;;;5.15;;
55756;SDS011;41676;44.610;44.078;2023-06-26T12:34:36;8.82;;;5.15;;
55756;SDS011;41676;44.610;44.078;2023-06-26T12:39:59;9.80;;;4.53;;
55756;SDS011;41676;44.610;44.078;2023-06-26T12:44:59;12.60;;;4.78;;
55756;SDS011;41676;44.610;44.078;2023-06-26T12:50:11;16.63;;;5.15;;
55756;SDS011;41676;44.610;44.078;2023-06-26T12:55:12;12.03;;;4.40;;
55756;SDS011;41676;44.610;44.078;2023-06-26T13:00:13;13.68;;;4.28;;
55756;SDS011;41676;44.610;44.078;2023-06-26T13:05:15;13.57;;;4.33;;
55756;SDS011;41676;44.610;44.078;2023-06-26T13:10:16;18.75;;;5.68;;
55756;SDS011;41676;44.610;44.078;2023-06-26T13:15:17;9.90;;;4.80;;
55756;SDS011;41676;44.610;44.078;2023-06-26T13:20:18;8.55;;;4.45;;
55756;SDS011;41676;44.610;44.078;2023-06-26T13:25:18;11.02;;;4.85;;
55756;SDS011;41676;44.610;44.078;2023-06-26T13:30:20;6.32;;;4.32;;
55756;SDS011;41676;44.610;44.078;2023-06-26T13:40:23;8.43;;;4.43;;
55756;SDS011;41676;44.610;44.078;2023-06-26T13:45:25;18.67;;;4.60;;
55756;SDS011;41676;44.610;44.078;2023-06-26T13:50:25;19.50;;;4.90;;
55756;SDS011;41676;44.610;44.078;2023-06-26T13:55:26;10.25;;;4.05;;
55756;SDS011;41676;44.610;44.078;2023-06-26T14:00:27;12.43;;;4.53;;
55756;SDS011;41676;44.610;44.078;2023-06-26T14:05:30;10.20;;;4.80;;
55756;SDS011;41676;44.610;44.078;2023-06-26T14:10:31;12.52;;;4.35;;
55756;SDS011;41676;44.610;44.078;2023-06-26T14:20:34;16.05;;;4.82;;
55756;SDS011;41676;44.610;44.078;2023-06-26T14:25:36;15.95;;;5.55;;
55756;SDS011;41676;44.610;44.078;2023-06-26T14:30:37;9.30;;;4.78;;
55756;SDS011;41676;44.610;44.078;2023-06-26T14:35:37;21.63;;;5.45;;
55756;SDS011;41676;44.610;44.078;2023-06-26T14:40:38;44.33;;;25.92;;
55756;SDS011;41676;44.610;44.078;2023-06-26T14:45:39;72.63;;;43.60;;
55756;SDS011;41676;44.610;44.078;2023-06-26T14:50:40;101.70;;;61.55;;
55756;SDS011;41676;44.610;44.078;2023-06-26T14:55:41;113.20;;;60.88;;
55756;SDS011;41676;44.610;44.078;2023-06-26T15:00:41;89.32;;;49.55;;
55756;SDS011;41676;44.610;44.078;2023-06-26T15:05:44;71.30;;;38.55;;
55756;SDS011;41676;44.610;44.078;2023-06-26T15:10:44;82.60;;;35.33;;
55756;SDS011;41676;44.610;44.078;2023-06-26T15:15:45;79.50;;;33.17;;
55756;SDS011;41676;44.610;44.078;2023-06-26T15:20:46;55.00;;;25.20;;
55756;SDS011;41676;44.610;44.078;2023-06-26T15:25:47;68.50;;;28.40;;
55756;SDS011;41676;44.610;44.078;2023-06-26T15:30:48;62.75;;;24.10;;
55756;SDS011;41676;44.610;44.078;2023-06-26T15:35:49;50.50;;;21.30;;
55756;SDS011;41676;44.610;44.078;2023-06-26T15:40:50;52.25;;;20.02;;
55756;SDS011;41676;44.610;44.078;2023-06-26T15:45:52;83.70;;;31.50;;
55756;SDS011;41676;44.610;44.078;2023-06-26T15:50:53;79.50;;;24.67;;
55756;SDS011;41676;44.610;44.078;2023-06-26T15:55:53;53.78;;;18.17;;
55756;SDS011;41676;44.610;44.078;2023-06-26T16:00:54;81.40;;;20.38;;
55756;SDS011;41676;44.610;44.078;2023-06-26T16:05:55;53.65;;;20.33;;
55756;SDS011;41676;44.610;44.078;2023-06-26T16:10:56;73.03;;;24.92;;
55756;SDS011;41676;44.610;44.078;2023-06-26T16:15:57;81.68;;;22.20;;
55756;SDS011;41676;44.610;44.078;2023-06-26T16:20:58;50.17;;;15.43;;
55756;SDS011;41676;44.610;44.078;2023-06-26T16:25:59;57.25;;;15.85;;
55756;SDS011;41676;44.610;44.078;2023-06-26T17:31:55;24.63;;;5.35;;
55756;SDS011;41676;44.610;44.078;2023-06-26T17:36:56;22.08;;;5.13;;
55756;SDS011;41676;44.610;44.078;2023-06-26T17:41:57;30.83;;;5.68;;
55756;SDS011;41676;44.610;44.078;2023-06-26T17:46:59;38.15;;;5.68;;
55756;SDS011;41676;44.610;44.078;2023-06-26T17:52:00;26.55;;;4.65;;
55756;SDS011;41676;44.610;44.078;2023-06-26T17:57:01;25.83;;;5.50;;
55756;SDS011;41676;44.610;44.078;2023-06-26T18:02:02;29.83;;;4.65;;
55756;SDS011;41676;44.610;44.078;2023-06-26T18:07:03;35.10;;;4.65;;
55756;SDS011;41676;44.610;44.078;2023-06-26T18:12:05;37.45;;;5.30;;
55756;SDS011;41676;44.610;44.078;2023-06-26T18:17:06;27.95;;;5.10;;
55756;SDS011;41676;44.610;44.078;2023-06-26T18:22:07;21.48;;;4.45;;
55756;SDS011;41676;44.610;44.078;2023-06-26T18:27:07;20.55;;;4.57;;
55756;SDS011;41676;44.610;44.078;2023-06-26T18:32:09;16.00;;;4.07;;
55756;SDS011;41676;44.610;44.078;2023-06-26T18:37:09;25.23;;;4.55;;
55756;SDS011;41676;44.610;44.078;2023-06-26T18:42:10;14.82;;;4.50;;
55756;SDS011;41676;44.610;44.078;2023-06-26T18:47:11;33.50;;;5.68;;
55756;SDS011;41676;44.610;44.078;2023-06-26T18:52:12;17.95;;;5.78;;
55756;SDS011;41676;44.610;44.078;2023-06-26T18:57:12;29.05;;;6.43;;
55756;SDS011;41676;44.610;44.078;2023-06-26T19:02:13;17.35;;;6.60;;
55756;SDS011;41676;44.610;44.078;2023-06-26T19:07:14;17.42;;;7.35;;
55756;SDS011;41676;44.610;44.078;2023-06-26T19:12:15;29.98;;;10.40;;
55756;SDS011;41676;44.610;44.078;2023-06-26T19:17:16;20.30;;;9.10;;
55756;SDS011;41676;44.610;44.078;2023-06-26T19:22:17;22.67;;;8.93;;
55756;SDS011;41676;44.610;44.078;2023-06-26T19:27:18;23.75;;;9.82;;
55756;SDS011;41676;44.610;44.078;2023-06-26T19:32:19;27.30;;;9.15;;
55756;SDS011;41676;44.610;44.078;2023-06-26T19:37:20;24.95;;;8.18;;
55756;SDS011;41676;44.610;44.078;2023-06-26T19:42:21;23.73;;;8.55;;
55756;SDS011;41676;44.610;44.078;2023-06-26T19:47:21;29.73;;;7.53;;
55756;SDS011;41676;44.610;44.078;2023-06-26T19:52:22;18.48;;;5.55;;
55756;SDS011;41676;44.610;44.078;2023-06-26T19:57:23;12.82;;;5.53;;
55756;SDS011;41676;44.610;44.078;2023-06-26T20:02:24;12.77;;;4.90;;
55756;SDS011;41676;44.610;44.078;2023-06-26T20:07:24;10.38;;;3.85;;
55756;SDS011;41676;44.610;44.078;2023-06-26T20:12:25;15.93;;;4.00;;
55756;SDS011;41676;44.610;44.078;2023-06-26T20:17:26;15.15;;;3.60;;
55756;SDS011;41676;44.610;44.078;2023-06-26T20:22:27;23.67;;;3.55;;
55756;SDS011;41676;44.610;44.078;2023-06-26T20:27:28;14.60;;;3.03;;
55756;SDS011;41676;44.610;44.078;2023-06-26T20:32:29;12.52;;;2.95;;
55756;SDS011;41676;44.610;44.078;2023-06-26T20:37:30;9.70;;;3.28;;
55756;SDS011;41676;44.610;44.078;2023-06-26T20:42:30;6.80;;;2.40;;
55756;SDS011;41676;44.610;44.078;2023-06-26T20:47:31;5.97;;;2.60;;
55756;SDS011;41676;44.610;44.078;2023-06-26T20:52:42;3.95;;;2.58;;
55756;SDS011;41676;44.610;44.078;2023-06-26T20:57:44;5.93;;;3.13;;
55756;SDS011;41676;44.610;44.078;2023-06-26T21:02:44;5.70;;;2.53;;
55756;SDS011;41676;44.610;44.078;2023-06-26T21:07:45;9.00;;;2.60;;
55756;SDS011;41676;44.610;44.078;2023-06-26T21:12:46;5.53;;;2.78;;
55756;SDS011;41676;44.610;44.078;2023-06-26T21:17:47;7.78;;;3.42;;
55756;SDS011;41676;44.610;44.078;2023-06-26T21:22:48;3.33;;;2.28;;
55756;SDS011;41676;44.610;44.078;2023-06-26T21:27:49;4.63;;;2.80;;
55756;SDS011;41676;44.610;44.078;2023-06-26T21:32:50;6.07;;;2.97;;
55756;SDS011;41676;44.610;44.078;2023-06-26T21:37:51;6.82;;;3.00;;
55756;SDS011;41676;44.610;44.078;2023-06-26T21:42:51;7.75;;;2.80;;
55756;SDS011;41676;44.610;44.078;2023-06-26T21:47:52;4.10;;;2.70;;
55756;SDS011;41676;44.610;44.078;2023-06-26T21:52:53;3.95;;;2.63;;
55756;SDS011;41676;44.610;44.078;2023-06-26T21:57:54;4.88;;;2.67;;
55756;SDS011;41676;44.610;44.078;2023-06-26T22:02:55;8.80;;;2.95;;
55756;SDS011;41676;44.610;44.078;2023-06-26T22:07:56;5.88;;;2.47;;
55756;SDS011;41676;44.610;44.078;2023-06-26T22:12:56;9.60;;;2.90;;
55756;SDS011;41676;44.610;44.078;2023-06-26T22:17:57;5.70;;;3.40;;
55756;SDS011;41676;44.610;44.078;2023-06-26T22:22:58;9.68;;;3.78;;
55756;SDS011;41676;44.610;44.078;2023-06-26T22:27:59;11.35;;;4.35;;
55756;SDS011;41676;44.610;44.078;2023-06-26T22:33:00;7.10;;;4.50;;
55756;SDS011;41676;44.610;44.078;2023-06-26T22:38:00;8.55;;;5.20;;
55756;SDS011;41676;44.610;44.078;2023-06-26T22:43:01;9.57;;;5.85;;
55756;SDS011;41676;44.610;44.078;2023-06-26T22:48:06;8.75;;;6.50;;
55756;SDS011;41676;44.610;44.078;2023-06-26T22:53:07;9.80;;;6.50;;
55756;SDS011;41676;44.610;44.078;2023-06-26T22:58:08;10.25;;;7.13;;
55756;SDS011;41676;44.610;44.078;2023-06-26T23:03:09;10.10;;;6.18;;
55756;SDS011;41676;44.610;44.078;2023-06-26T23:08:12;12.00;;;6.23;;
55756;SDS011;41676;44.610;44.078;2023-06-26T23:13:13;23.50;;;5.80;;
55756;SDS011;41676;44.610;44.078;2023-06-26T23:18:14;9.82;;;5.20;;
55756;SDS011;41676;44.610;44.078;2023-06-26T23:23:15;9.00;;;5.00;;
55756;SDS011;41676;44.610;44.078;2023-06-26T23:28:16;8.40;;;5.05;;
55756;SDS011;41676;44.610;44.078;2023-06-26T23:33:17;7.13;;;4.57;;
55756;SDS011;41676;44.610;44.078;2023-06-26T23:38:17;5.55;;;4.07;;
55756;SDS011;41676;44.610;44.078;2023-06-26T23:43:18;6.35;;;3.83;;
55756;SDS011;41676;44.610;44.078;2023-06-26T23:48:19;8.50;;;3.70;;
55756;SDS011;41676;44.610;44.078;2023-06-26T23:53:20;9.50;;;3.30;;
55756;SDS011;41676;44.610;44.078;2023-06-26T23:58:20;6.28;;;3.40;;
